createdAt,value
2022-10-11T00:01:14.011Z,82.93
2022-10-11T00:03:59.700Z,82.60
2022-10-11T00:06:45.247Z,83.14
2022-10-11T00:09:30.859Z,82.75
2022-10-11T00:12:15.901Z,83.23
2022-10-11T00:15:02.067Z,82.80
2022-10-11T00:17:47.923Z,83.00
2022-10-11T00:20:33.396Z,83.27
2022-10-11T00:23:18.850Z,82.79
2022-10-11T00:26:07.226Z,82.91
2022-10-11T00:28:53.267Z,83.07
2022-10-11T00:31:39.474Z,83.42
2022-10-11T00:34:24.754Z,83.00
2022-10-11T00:37:09.933Z,83.19
2022-10-11T00:39:55.433Z,83.33
2022-10-11T00:42:41.135Z,83.57
2022-10-11T00:45:26.668Z,83.24
2022-10-11T00:48:21.459Z,83.28
2022-10-11T00:51:18.231Z,83.21
2022-10-11T00:54:04.650Z,83.34
2022-10-11T00:56:54.538Z,83.40
2022-10-11T00:59:47.974Z,83.07
2022-10-11T01:02:33.652Z,83.39
2022-10-11T01:05:29.765Z,83.17
2022-10-11T01:08:15.432Z,82.89
2022-10-11T01:11:01.274Z,83.22
2022-10-11T01:14:05.171Z,83.67
2022-10-11T01:17:22.536Z,83.15
2022-10-11T01:20:32.839Z,83.46
2022-10-11T01:23:52.155Z,83.88
2022-10-11T01:26:51.055Z,83.88
2022-10-11T01:29:45.604Z,83.77
2022-10-11T01:32:52.541Z,83.75
2022-10-11T01:35:37.932Z,84.16
2022-10-11T01:38:46.861Z,83.98
2022-10-11T01:41:38.994Z,83.86
2022-10-11T01:44:26.960Z,83.67
2022-10-11T01:47:12.560Z,84.14
2022-10-11T01:50:01.554Z,83.95
2022-10-11T01:52:47.730Z,84.19
2022-10-11T01:55:51.808Z,83.96
2022-10-11T01:59:26.119Z,84.59
2022-10-11T02:02:49.117Z,84.31
2022-10-11T02:05:59.921Z,84.40
2022-10-11T02:09:04.386Z,84.24
2022-10-11T02:11:57.275Z,84.54
2022-10-11T02:14:46.498Z,84.53
2022-10-11T02:17:36.429Z,84.25
2022-10-11T02:20:26.450Z,84.68
2022-10-11T02:23:23.894Z,84.58
2022-10-11T02:26:12.814Z,84.51
2022-10-11T02:29:01.390Z,84.55
2022-10-11T02:31:47.530Z,84.77
2022-10-11T02:34:40.005Z,84.91
2022-10-11T02:37:32.871Z,84.65
2022-10-11T02:40:24.974Z,84.70
2022-10-11T02:43:17.771Z,84.68
2022-10-11T02:46:05.413Z,84.21
2022-10-11T02:48:51.547Z,84.61
2022-10-11T02:51:37.002Z,84.90
2022-10-11T02:54:24.579Z,84.80
2022-10-11T02:57:10.235Z,84.55
2022-10-11T02:59:55.545Z,85.02
2022-10-11T03:02:41.185Z,84.79
2022-10-11T03:05:27.007Z,85.06
2022-10-11T03:08:14.527Z,84.75
2022-10-11T03:11:00.256Z,84.88
2022-10-11T03:13:45.458Z,84.98
2022-10-11T03:16:31.224Z,84.69
2022-10-11T03:19:19.259Z,85.02
2022-10-11T03:22:05.641Z,85.42
2022-10-11T03:24:51.144Z,84.86
2022-10-11T03:27:37.314Z,84.85
2022-10-11T03:30:22.530Z,85.35
2022-10-11T03:33:08.049Z,85.47
2022-10-11T03:35:53.394Z,85.35
2022-10-11T03:38:39.219Z,85.30
2022-10-11T03:41:24.982Z,84.89
2022-10-11T03:44:10.647Z,84.76
2022-10-11T03:46:56.073Z,84.88
2022-10-11T03:49:43.752Z,84.78
2022-10-11T03:52:29.399Z,85.18
2022-10-11T03:55:15.134Z,84.99
2022-10-11T03:58:00.718Z,85.03
2022-10-11T04:00:46.534Z,85.53
2022-10-11T04:03:32.033Z,85.30
2022-10-11T04:06:17.504Z,84.80
2022-10-11T04:09:03.299Z,85.75
2022-10-11T04:11:48.655Z,85.52
2022-10-11T04:14:34.123Z,84.79
2022-10-11T04:17:19.539Z,84.98
2022-10-11T04:20:06.268Z,85.68
2022-10-11T04:22:51.606Z,85.67
2022-10-11T04:25:39.714Z,85.40
2022-10-11T04:28:25.280Z,85.76
2022-10-11T04:31:11.104Z,85.55
2022-10-11T04:33:57.281Z,85.24
2022-10-11T04:36:46.290Z,85.52
2022-10-11T04:39:34.285Z,85.39
2022-10-11T04:42:20.703Z,85.07
2022-10-11T04:45:06.587Z,85.28
2022-10-11T04:47:52.148Z,84.91
2022-10-11T04:50:37.410Z,84.91
2022-10-11T04:53:26.073Z,85.64
2022-10-11T04:56:12.038Z,85.19
2022-10-11T04:58:57.351Z,85.73
2022-10-11T05:01:42.974Z,85.00
2022-10-11T05:04:28.290Z,85.71
2022-10-11T05:07:13.847Z,85.26
2022-10-11T05:09:59.171Z,85.57
2022-10-11T05:12:44.616Z,85.44
2022-10-11T05:15:30.245Z,85.62
2022-10-11T05:18:15.875Z,85.61
2022-10-11T05:21:06.662Z,85.44
2022-10-11T05:23:55.350Z,84.87
2022-10-11T05:26:40.921Z,85.32
2022-10-11T05:29:26.682Z,85.67
2022-10-11T05:32:11.993Z,84.88
2022-10-11T05:34:57.834Z,85.52
2022-10-11T05:37:42.927Z,85.67
2022-10-11T05:40:28.484Z,85.61
2022-10-11T05:43:13.777Z,85.31
2022-10-11T05:45:59.161Z,85.68
2022-10-11T05:48:44.430Z,85.88
2022-10-11T05:51:29.912Z,85.30
2022-10-11T05:54:15.344Z,85.52
2022-10-11T05:57:00.828Z,86.00
2022-10-11T05:59:46.301Z,85.91
2022-10-11T06:02:31.670Z,85.53
2022-10-11T06:05:17.293Z,85.24
2022-10-11T06:08:04.173Z,85.72
2022-10-11T06:10:49.564Z,86.06
2022-10-11T06:13:36.054Z,86.01
2022-10-11T06:16:21.848Z,85.79
2022-10-11T06:19:07.747Z,85.82
2022-10-11T06:21:53.464Z,85.52
2022-10-11T06:24:38.827Z,85.58
2022-10-11T06:27:24.398Z,85.60
2022-10-11T06:30:10.275Z,86.02
2022-10-11T06:32:55.596Z,85.86
2022-10-11T06:35:41.166Z,86.09
2022-10-11T06:38:26.953Z,85.90
2022-10-11T06:41:23.957Z,85.77
2022-10-11T06:44:14.426Z,86.19
2022-10-11T06:46:59.938Z,86.11
2022-10-11T06:49:45.338Z,85.77
2022-10-11T06:52:30.639Z,85.59
2022-10-11T06:55:16.076Z,85.97
2022-10-11T06:58:01.480Z,86.02
2022-10-11T07:00:46.878Z,85.47
2022-10-11T07:03:32.598Z,85.71
2022-10-11T07:06:21.243Z,86.40
2022-10-11T07:09:07.470Z,86.19
2022-10-11T07:11:52.981Z,85.96
2022-10-11T07:14:38.474Z,86.06
2022-10-11T07:17:23.979Z,86.21
2022-10-11T07:20:10.009Z,85.80
2022-10-11T07:22:55.429Z,86.18
2022-10-11T07:25:41.083Z,86.05
2022-10-11T07:28:27.218Z,86.29
2022-10-11T07:31:16.754Z,85.79
2022-10-11T07:34:02.408Z,86.49
2022-10-11T07:36:47.821Z,85.82
2022-10-11T07:39:33.157Z,85.81
2022-10-11T07:42:18.631Z,85.86
2022-10-11T07:45:04.632Z,86.58
2022-10-11T07:47:50.304Z,86.37
2022-10-11T07:50:35.881Z,86.00
2022-10-11T07:53:21.446Z,85.99
2022-10-11T07:56:08.687Z,86.31
2022-10-11T07:59:00.408Z,85.94
2022-10-11T08:01:45.862Z,85.80
2022-10-11T08:04:31.714Z,85.56
2022-10-11T08:07:17.280Z,86.00
2022-10-11T08:10:02.809Z,86.19
2022-10-11T08:12:48.364Z,86.18
2022-10-11T08:15:33.614Z,85.50
2022-10-11T08:18:19.207Z,85.51
2022-10-11T08:21:09.694Z,85.58
2022-10-11T08:23:55.449Z,85.57
2022-10-11T08:26:41.540Z,85.40
2022-10-11T08:29:27.249Z,85.56
2022-10-11T08:32:13.073Z,85.84
2022-10-11T08:34:58.410Z,85.56
2022-10-11T08:37:43.859Z,85.50
2022-10-11T08:40:34.270Z,85.41
2022-10-11T08:43:45.700Z,85.52
2022-10-11T08:46:34.833Z,85.05
2022-10-11T08:49:24.549Z,85.22
2022-10-11T08:52:21.050Z,84.86
2022-10-11T08:55:15.810Z,85.34
2022-10-11T08:58:02.126Z,84.67
2022-10-11T09:00:50.114Z,84.72
2022-10-11T09:03:42.438Z,84.86
2022-10-11T09:07:00.184Z,84.71
2022-10-11T09:10:17.905Z,84.54
2022-10-11T09:13:16.401Z,84.46
2022-10-11T09:16:17.712Z,84.59
2022-10-11T09:19:12.320Z,84.64
2022-10-11T09:21:57.407Z,84.18
2022-10-11T09:25:10.075Z,84.08
2022-10-11T09:28:29.368Z,84.25
2022-10-11T09:31:15.959Z,84.30
2022-10-11T09:34:11.212Z,84.35
2022-10-11T09:37:36.839Z,84.12
2022-10-11T09:40:36.114Z,84.30
2022-10-11T09:43:21.986Z,83.91
2022-10-11T09:46:22.644Z,83.79
2022-10-11T09:49:12.584Z,84.10
2022-10-11T09:52:00.810Z,83.69
2022-10-11T09:54:54.282Z,83.66
2022-10-11T09:57:40.338Z,83.57
2022-10-11T10:00:28.766Z,83.38
2022-10-11T10:03:27.811Z,83.36
2022-10-11T10:06:23.312Z,83.13
2022-10-11T10:09:30.175Z,83.74
2022-10-11T10:12:22.749Z,83.28
2022-10-11T10:15:19.155Z,83.29
2022-10-11T10:18:10.613Z,82.96
2022-10-11T10:20:59.647Z,83.07
2022-10-11T10:23:45.129Z,82.92
2022-10-11T10:26:32.320Z,82.71
2022-10-11T10:29:18.733Z,82.87
2022-10-11T10:32:21.328Z,82.26
2022-10-11T10:35:16.869Z,82.57
2022-10-11T10:38:14.162Z,82.58
2022-10-11T10:41:19.058Z,82.30
2022-10-11T10:44:04.654Z,82.06
2022-10-11T10:47:13.426Z,82.13
2022-10-11T10:50:04.808Z,81.88
2022-10-11T10:52:53.206Z,81.60
2022-10-11T10:55:45.152Z,81.58
2022-10-11T10:58:40.235Z,82.09
2022-10-11T11:01:32.381Z,81.67
2022-10-11T11:04:26.769Z,81.57
2022-10-11T11:07:31.410Z,81.28
2022-10-11T11:10:25.494Z,81.08
2022-10-11T11:13:19.134Z,81.17
2022-10-11T11:16:35.744Z,80.30
2022-10-11T11:19:50.486Z,80.63
2022-10-11T11:22:48.888Z,80.09
2022-10-11T11:25:51.618Z,80.71
2022-10-11T11:28:42.897Z,79.76
2022-10-11T11:31:34.388Z,80.43
2022-10-11T11:35:01.294Z,80.42
2022-10-11T11:37:48.633Z,80.04
2022-10-11T11:40:37.362Z,80.44
2022-10-11T11:43:32.877Z,80.15
2022-10-11T11:46:27.395Z,80.04
2022-10-11T11:49:33.746Z,80.19
2022-10-11T11:52:33.720Z,79.71
2022-10-11T11:55:42.362Z,79.60
2022-10-11T11:58:34.896Z,80.08
2022-10-11T12:01:36.087Z,79.44
2022-10-11T12:04:38.155Z,79.43
2022-10-11T12:07:27.243Z,79.64
2022-10-11T12:10:27.972Z,79.32
2022-10-11T12:13:32.157Z,80.10
2022-10-11T12:16:18.381Z,79.51
2022-10-11T12:19:04.187Z,79.47
2022-10-11T12:22:27.814Z,79.08
2022-10-11T12:25:22.590Z,79.51
2022-10-11T12:28:42.243Z,78.85
2022-10-11T12:31:31.102Z,78.88
2022-10-11T12:34:34.574Z,78.88
2022-10-11T12:37:20.217Z,79.19
2022-10-11T12:40:36.058Z,78.72
2022-10-11T12:43:26.425Z,78.52
2022-10-11T12:46:29.741Z,78.85
2022-10-11T12:49:31.276Z,79.18
2022-10-11T12:52:16.764Z,78.90
2022-10-11T12:55:21.013Z,78.42
2022-10-11T12:58:29.319Z,78.83
2022-10-11T13:01:23.371Z,78.91
2022-10-11T13:04:11.855Z,78.96
2022-10-11T13:07:06.718Z,78.97
2022-10-11T13:09:54.061Z,78.24
2022-10-11T13:12:43.525Z,79.23
2022-10-11T13:15:29.188Z,78.56
2022-10-11T13:18:17.576Z,79.18
2022-10-11T13:21:14.906Z,78.36
2022-10-11T13:24:04.757Z,78.35
2022-10-11T13:26:52.787Z,78.91
2022-10-11T13:29:45.462Z,78.30
2022-10-11T13:32:32.039Z,78.03
2022-10-11T13:35:24.950Z,78.62
2022-10-11T13:38:30.871Z,77.75
2022-10-11T13:41:16.171Z,77.93
2022-10-11T13:44:03.354Z,77.63
2022-10-11T13:46:49.110Z,77.99
2022-10-11T13:49:37.815Z,78.06
2022-10-11T13:52:24.359Z,77.74
2022-10-11T13:55:22.339Z,77.58
2022-10-11T13:58:18.867Z,77.73
2022-10-11T14:01:16.723Z,77.54
2022-10-11T14:04:08.478Z,77.04
2022-10-11T14:06:58.637Z,77.52
2022-10-11T14:09:47.149Z,77.62
2022-10-11T14:12:43.241Z,78.38
2022-10-11T14:15:33.029Z,77.18
2022-10-11T14:18:37.609Z,77.76
2022-10-11T14:21:33.519Z,78.15
2022-10-11T14:24:21.557Z,77.94
2022-10-11T14:27:09.973Z,78.40
2022-10-11T14:30:20.243Z,78.27
2022-10-11T14:33:02.657Z,78.11
2022-10-11T14:35:52.206Z,78.51
2022-10-11T14:38:37.278Z,78.32
2022-10-11T14:41:22.857Z,78.37
2022-10-11T14:44:08.470Z,78.54
2022-10-11T14:46:54.687Z,78.55
2022-10-11T14:49:40.566Z,77.88
2022-10-11T14:52:25.823Z,78.57
2022-10-11T14:55:11.159Z,78.73
2022-10-11T14:57:57.004Z,78.86
2022-10-11T15:00:42.500Z,78.41
2022-10-11T15:03:27.805Z,78.49
2022-10-11T15:06:29.984Z,78.30
2022-10-11T15:09:17.094Z,78.41
2022-10-11T15:12:02.328Z,78.63
2022-10-11T15:14:47.763Z,79.24
2022-10-11T15:17:33.447Z,78.52
2022-10-11T15:20:37.862Z,78.89
2022-10-11T15:23:22.987Z,79.30
2022-10-11T15:26:14.042Z,79.08
2022-10-11T15:29:00.088Z,78.65
2022-10-11T15:31:46.559Z,79.41
2022-10-11T15:34:32.160Z,79.36
2022-10-11T15:37:17.770Z,79.48
2022-10-11T15:40:14.193Z,79.09
2022-10-11T15:43:00.098Z,79.39
2022-10-11T15:45:45.558Z,79.53
2022-10-11T15:48:32.762Z,79.93
2022-10-11T15:51:18.186Z,79.38
2022-10-11T15:54:03.842Z,79.58
2022-10-11T15:56:49.405Z,79.47
2022-10-11T15:59:34.797Z,79.49
2022-10-11T16:02:20.239Z,79.47
2022-10-11T16:05:05.980Z,79.50
2022-10-11T16:07:52.154Z,79.44
2022-10-11T16:10:38.150Z,79.56
2022-10-11T16:13:23.725Z,80.17
2022-10-11T16:16:11.567Z,79.84
2022-10-11T16:18:57.321Z,79.63
2022-10-11T16:21:42.742Z,79.73
2022-10-11T16:24:28.142Z,79.95
2022-10-11T16:27:17.964Z,80.22
2022-10-11T16:30:05.253Z,80.27
2022-10-11T16:32:50.650Z,80.40
2022-10-11T16:35:36.213Z,80.12
2022-10-11T16:38:21.489Z,80.07
2022-10-11T16:41:07.447Z,80.25
2022-10-11T16:43:54.884Z,80.12
2022-10-11T16:46:40.004Z,80.32
2022-10-11T16:49:28.180Z,80.15
2022-10-11T16:52:14.234Z,80.07
2022-10-11T16:54:59.702Z,80.48
2022-10-11T16:57:45.148Z,80.18
2022-10-11T17:00:30.737Z,80.59
2022-10-11T17:03:16.135Z,80.75
2022-10-11T17:06:01.562Z,80.36
2022-10-11T17:08:47.024Z,80.37
2022-10-11T17:11:33.162Z,80.56
2022-10-11T17:14:18.773Z,80.35
2022-10-11T17:17:05.453Z,80.70
2022-10-11T17:19:50.697Z,80.83
2022-10-11T17:22:36.080Z,80.90
2022-10-11T17:25:21.707Z,80.86
2022-10-11T17:28:07.198Z,80.66
2022-10-11T17:30:54.908Z,80.92
2022-10-11T17:33:40.687Z,80.94
2022-10-11T17:36:30.663Z,81.18
2022-10-11T17:39:19.225Z,81.41
2022-10-11T17:42:07.477Z,81.00
2022-10-11T17:44:53.117Z,81.18
2022-10-11T17:47:38.491Z,81.36
2022-10-11T17:50:23.990Z,81.42
2022-10-11T17:53:09.432Z,81.28
2022-10-11T17:55:57.061Z,81.17
2022-10-11T17:58:42.833Z,81.50
2022-10-11T18:01:29.579Z,81.27
2022-10-11T18:04:16.974Z,81.70
2022-10-11T18:07:02.434Z,81.53
2022-10-11T18:09:47.872Z,81.58
2022-10-11T18:12:33.345Z,81.60
2022-10-11T18:15:20.878Z,81.71
2022-10-11T18:18:07.329Z,81.43
2022-10-11T18:20:52.809Z,81.86
2022-10-11T18:23:39.058Z,81.57
2022-10-11T18:26:28.006Z,82.03
2022-10-11T18:29:15.990Z,81.62
2022-10-11T18:32:01.324Z,81.88
2022-10-11T18:34:47.349Z,81.79
2022-10-11T18:37:32.725Z,81.53
2022-10-11T18:40:18.116Z,81.94
2022-10-11T18:43:03.873Z,81.89
2022-10-11T18:45:49.569Z,82.08
2022-10-11T18:48:40.063Z,82.15
2022-10-11T18:51:31.484Z,82.21
2022-10-11T18:54:21.144Z,81.70
2022-10-11T18:57:07.047Z,81.78
2022-10-11T18:59:53.520Z,81.74
2022-10-11T19:02:38.813Z,82.35
2022-10-11T19:05:24.289Z,82.31
2022-10-11T19:08:10.010Z,82.19
2022-10-11T19:10:55.684Z,82.41
2022-10-11T19:13:41.759Z,82.66
2022-10-11T19:16:29.904Z,82.51
2022-10-11T19:19:16.255Z,81.99
2022-10-11T19:22:03.441Z,82.33
2022-10-11T19:24:48.718Z,82.18
2022-10-11T19:27:34.274Z,82.63
2022-10-11T19:30:20.161Z,82.51
2022-10-11T19:33:05.599Z,82.20
2022-10-11T19:35:55.330Z,82.59
2022-10-11T19:38:45.056Z,82.15
2022-10-11T19:41:30.888Z,82.60
2022-10-11T19:44:16.915Z,82.48
2022-10-11T19:47:05.439Z,82.56
2022-10-11T19:49:51.201Z,82.47
2022-10-11T19:52:40.353Z,82.93
2022-10-11T19:55:27.943Z,82.97
2022-10-11T19:58:13.515Z,82.50
2022-10-11T20:01:07.038Z,83.11
2022-10-11T20:03:57.584Z,82.52
2022-10-11T20:06:43.290Z,82.69
2022-10-11T20:09:30.540Z,82.92
2022-10-11T20:12:16.552Z,83.22
2022-10-11T20:15:01.967Z,83.26
2022-10-11T20:17:50.387Z,82.91
2022-10-11T20:20:36.244Z,83.28
2022-10-11T20:23:26.626Z,82.86
2022-10-11T20:26:18.644Z,83.16
2022-10-11T20:29:04.128Z,83.30
2022-10-11T20:31:49.789Z,83.28
2022-10-11T20:34:39.714Z,83.48
2022-10-11T20:37:25.303Z,83.35
2022-10-11T20:40:12.013Z,82.93
2022-10-11T20:42:57.194Z,83.37
2022-10-11T20:45:42.599Z,83.56
2022-10-11T20:48:28.739Z,83.57
2022-10-11T20:51:14.449Z,82.93
2022-10-11T20:54:02.087Z,83.08
2022-10-11T20:56:48.210Z,83.42
2022-10-11T20:59:33.819Z,82.91
2022-10-11T21:02:19.264Z,83.12
2022-10-11T21:05:05.769Z,83.49
2022-10-11T21:07:53.143Z,83.19
2022-10-11T21:10:39.516Z,83.29
2022-10-11T21:13:24.671Z,83.67
2022-10-11T21:16:15.540Z,83.31
2022-10-11T21:19:02.474Z,83.23
2022-10-11T21:21:52.693Z,83.73
2022-10-11T21:24:39.010Z,83.47
2022-10-11T21:27:28.034Z,83.13
2022-10-11T21:30:13.607Z,83.26
2022-10-11T21:32:59.168Z,83.63
2022-10-11T21:35:44.956Z,83.79
2022-10-11T21:38:30.495Z,83.63
2022-10-11T21:41:18.795Z,83.76
2022-10-11T21:44:05.595Z,83.40
2022-10-11T21:47:07.801Z,83.90
2022-10-11T21:49:53.713Z,83.87
2022-10-11T21:52:39.154Z,83.26
2022-10-11T21:55:24.691Z,83.49
2022-10-11T21:58:09.674Z,83.42
2022-10-11T22:00:55.389Z,84.02
2022-10-11T22:03:40.787Z,83.43
2022-10-11T22:06:25.936Z,83.50
2022-10-11T22:09:11.900Z,83.93
2022-10-11T22:11:57.530Z,84.07
2022-10-11T22:14:43.101Z,83.29
2022-10-11T22:17:28.754Z,84.03
2022-10-11T22:20:14.915Z,83.90
2022-10-11T22:23:00.177Z,83.83
2022-10-11T22:25:46.256Z,84.04
2022-10-11T22:28:31.682Z,83.77
2022-10-11T22:31:19.008Z,83.38
2022-10-11T22:34:04.171Z,83.63
2022-10-11T22:36:49.545Z,83.62
2022-10-11T22:39:35.030Z,83.86
2022-10-11T22:42:24.180Z,84.11
2022-10-11T22:45:13.007Z,84.04
2022-10-11T22:47:58.501Z,83.67
2022-10-11T22:50:44.097Z,83.58
2022-10-11T22:53:30.596Z,83.76
2022-10-11T22:56:16.413Z,83.73
2022-10-11T22:59:02.026Z,83.67
2022-10-11T23:01:47.561Z,83.63
2022-10-11T23:04:32.907Z,83.98
2022-10-11T23:07:20.761Z,83.77
2022-10-11T23:10:06.163Z,84.42
2022-10-11T23:12:51.396Z,83.74
2022-10-11T23:15:40.635Z,84.23
2022-10-11T23:18:26.323Z,83.82
2022-10-11T23:21:11.476Z,83.52
2022-10-11T23:23:57.039Z,84.20
2022-10-11T23:26:42.978Z,84.07
2022-10-11T23:29:30.745Z,84.03
2022-10-11T23:32:16.231Z,83.53
2022-10-11T23:35:01.629Z,84.13
2022-10-11T23:37:47.047Z,83.63
2022-10-11T23:40:32.521Z,83.71
2022-10-11T23:43:18.274Z,83.84
2022-10-11T23:46:03.677Z,83.66
2022-10-11T23:48:48.865Z,83.66
2022-10-11T23:51:34.813Z,83.73
2022-10-11T23:54:20.182Z,83.53
2022-10-11T23:57:05.830Z,83.89
2022-10-11T23:59:51.383Z,83.46
